Terminal Aerodrome Forecast
Issued by NWS

Home | Current Version | Previous Version | Text Only | Print | Product List | Glossary On
Versions: 1 2 3 4 5 6 7 8 9 10 11 12 13 14 15 16 17 18 19 20 21 22 23 24 25 26 27
000
FTUS43 KDVN 012000 AAA
TAFCID
TAF AMD
KCID 012057Z 0121/0218 02020G30KT 1/4SM SN FZFG VV008
     FM012300 02018G26KT 1SM -SN BLSN OVC012
     FM020100 36014G24KT 3SM -SHSN BLSN OVC015
     FM020300 34012G19KT 5SM BLSN BKN020
     FM020500 33010KT P6SM SCT020=

USA.gov is the U.S. government's official web portal to all federal, state and local government web resources and services.